createdAt,value
2022-08-16T00:02:52.723Z,19.70
2022-08-16T00:05:21.101Z,19.68
2022-08-16T00:07:49.731Z,19.65
2022-08-16T00:10:25.887Z,19.61
2022-08-16T00:12:53.732Z,19.58
2022-08-16T00:15:50.963Z,19.56
2022-08-16T00:18:15.191Z,19.52
2022-08-16T00:20:43.314Z,19.49
2022-08-16T00:23:11.609Z,19.45
2022-08-16T00:26:33.536Z,19.44
2022-08-16T00:28:28.549Z,19.42
2022-08-16T00:30:59.197Z,19.39
2022-08-16T00:33:28.729Z,19.38
2022-08-16T00:35:58.580Z,19.36
2022-08-16T00:38:40.039Z,19.33
2022-08-16T00:41:09.638Z,19.33
2022-08-16T00:43:43.465Z,19.30
2022-08-16T00:46:33.198Z,19.29
2022-08-16T00:49:04.683Z,19.25
2022-08-16T00:51:33.609Z,19.25
2022-08-16T00:54:01.868Z,19.27
2022-08-16T00:56:57.474Z,19.26
2022-08-16T00:59:21.719Z,19.24
2022-08-16T01:01:51.752Z,19.22
2022-08-16T01:04:28.950Z,19.20
2022-08-16T01:07:01.714Z,19.18
2022-08-16T01:09:34.205Z,19.15
2022-08-16T01:12:03.200Z,19.14
2022-08-16T01:14:35.752Z,19.12
2022-08-16T01:17:03.872Z,19.11
2022-08-16T01:19:40.766Z,19.11
2022-08-16T01:22:48.692Z,19.10
2022-08-16T01:24:57.684Z,19.06
2022-08-16T01:27:34.350Z,19.01
2022-08-16T01:30:19.760Z,18.96
2022-08-16T01:33:01.186Z,18.92
2022-08-16T01:35:35.023Z,18.90
2022-08-16T01:38:25.736Z,18.86
2022-08-16T01:40:55.202Z,18.81
2022-08-16T01:43:24.529Z,18.77
2022-08-16T01:45:57.591Z,18.71
2022-08-16T01:48:27.630Z,18.66
2022-08-16T01:51:16.419Z,18.63
2022-08-16T01:53:44.082Z,18.60
2022-08-16T01:56:25.897Z,18.57
2022-08-16T01:58:57.892Z,18.57
2022-08-16T02:01:28.190Z,18.56
2022-08-16T02:03:58.674Z,18.57
2022-08-16T02:06:45.998Z,18.54
2022-08-16T02:09:17.891Z,18.52
2022-08-16T02:11:53.353Z,18.49
2022-08-16T02:14:26.309Z,18.47
2022-08-16T02:16:58.184Z,18.47
2022-08-16T02:19:59.232Z,18.47
2022-08-16T02:22:35.934Z,18.46
2022-08-16T02:25:07.136Z,18.43
2022-08-16T02:27:41.893Z,18.41
2022-08-16T02:30:36.998Z,18.40
2022-08-16T02:33:03.738Z,18.39
2022-08-16T02:35:32.189Z,18.39
2022-08-16T02:38:01.641Z,18.41
2022-08-16T02:40:37.376Z,18.42
2022-08-16T02:43:05.436Z,18.44
2022-08-16T02:45:33.216Z,18.45
2022-08-16T02:48:28.870Z,18.47
2022-08-16T02:50:55.296Z,18.47
2022-08-16T02:53:35.478Z,18.48
2022-08-16T02:56:04.086Z,18.49
2022-08-16T02:58:32.666Z,18.49
2022-08-16T03:01:01.102Z,18.51
2022-08-16T03:04:41.058Z,18.52
2022-08-16T03:06:42.263Z,18.54
2022-08-16T03:09:14.780Z,18.57
2022-08-16T03:11:47.559Z,18.58
2022-08-16T03:14:21.075Z,18.59
2022-08-16T03:16:59.238Z,18.60
2022-08-16T03:19:47.431Z,18.61
2022-08-16T03:22:19.540Z,18.63
2022-08-16T03:24:57.264Z,18.65
2022-08-16T03:27:31.187Z,18.67
2022-08-16T03:30:16.333Z,18.69
2022-08-16T03:32:51.623Z,18.69
2022-08-16T03:35:21.932Z,18.69
2022-08-16T03:38:02.519Z,18.69
2022-08-16T03:40:34.058Z,18.68
2022-08-16T03:43:20.142Z,18.68
2022-08-16T03:45:52.513Z,18.70
2022-08-16T03:48:36.798Z,18.73
2022-08-16T03:51:13.088Z,18.75
2022-08-16T03:53:57.743Z,18.77
2022-08-16T03:56:30.339Z,18.79
2022-08-16T03:58:58.902Z,18.82
2022-08-16T04:01:30.021Z,18.87
2022-08-16T04:03:57.983Z,18.89
2022-08-16T04:06:27.732Z,18.91
2022-08-16T04:08:55.726Z,18.94
2022-08-16T04:11:25.337Z,18.98
2022-08-16T04:14:01.619Z,19.02
2022-08-16T04:16:39.402Z,19.07
2022-08-16T04:19:31.462Z,19.10
2022-08-16T04:22:01.043Z,19.16
2022-08-16T04:24:41.738Z,19.22
2022-08-16T04:27:24.515Z,19.27
2022-08-16T04:30:02.571Z,19.31
2022-08-16T04:32:33.846Z,19.37
2022-08-16T04:35:09.320Z,19.43
2022-08-16T04:37:43.170Z,19.50
2022-08-16T04:40:21.550Z,19.57
2022-08-16T04:42:50.777Z,19.63
2022-08-16T04:45:18.832Z,19.71
2022-08-16T04:48:06.483Z,19.78
2022-08-16T04:50:43.486Z,19.84
2022-08-16T04:53:16.589Z,19.90
2022-08-16T04:55:47.375Z,19.96
2022-08-16T04:58:44.379Z,20.02
2022-08-16T05:01:09.691Z,20.09
2022-08-16T05:03:41.986Z,20.15
2022-08-16T05:06:42.461Z,20.24
2022-08-16T05:09:36.509Z,20.40
2022-08-16T05:12:07.173Z,20.54
2022-08-16T05:14:45.707Z,20.68
2022-08-16T05:17:16.729Z,20.85
2022-08-16T05:19:46.870Z,20.99
2022-08-16T05:22:28.414Z,21.15
2022-08-16T05:24:57.325Z,21.33
2022-08-16T05:27:25.392Z,21.51
2022-08-16T05:29:57.795Z,21.63
2022-08-16T05:32:32.677Z,21.82
2022-08-16T05:35:03.704Z,21.96
2022-08-16T05:37:39.718Z,22.06
2022-08-16T05:40:10.077Z,22.16
2022-08-16T05:42:46.146Z,22.27
2022-08-16T05:45:21.836Z,22.41
2022-08-16T05:47:59.502Z,22.59
2022-08-16T05:50:34.295Z,22.79
2022-08-16T05:53:03.611Z,22.89
2022-08-16T05:55:40.895Z,22.96
2022-08-16T05:58:08.982Z,23.08
2022-08-16T06:00:56.862Z,23.15
2022-08-16T06:03:25.429Z,23.15
2022-08-16T06:06:00.925Z,23.19
2022-08-16T06:08:42.379Z,23.25
2022-08-16T06:11:15.250Z,23.31
2022-08-16T06:13:47.495Z,23.35
2022-08-16T06:16:18.824Z,23.40
2022-08-16T06:18:48.596Z,23.37
2022-08-16T06:21:22.767Z,23.38
2022-08-16T06:23:54.701Z,23.42
2022-08-16T06:26:34.837Z,23.45
2022-08-16T06:29:05.180Z,23.51
2022-08-16T06:31:38.385Z,23.60
2022-08-16T06:34:55.535Z,23.74
2022-08-16T06:37:04.067Z,23.89
2022-08-16T06:39:49.446Z,24.01
2022-08-16T06:42:39.211Z,24.05
2022-08-16T06:45:38.109Z,24.10
2022-08-16T06:48:14.408Z,24.16
2022-08-16T06:50:50.206Z,24.18
2022-08-16T06:53:19.016Z,24.18
2022-08-16T06:55:58.630Z,24.16
2022-08-16T06:58:31.629Z,24.11
2022-08-16T07:01:09.616Z,24.16
2022-08-16T07:03:55.442Z,24.26
2022-08-16T07:06:26.686Z,24.33
2022-08-16T07:08:56.884Z,24.45
2022-08-16T07:11:48.052Z,24.63
2022-08-16T07:14:24.298Z,24.82
2022-08-16T07:16:58.368Z,24.97
2022-08-16T07:19:33.648Z,25.16
2022-08-16T07:22:37.569Z,25.34
2022-08-16T07:25:04.215Z,25.40
2022-08-16T07:27:33.822Z,25.44
2022-08-16T07:30:40.438Z,25.55
2022-08-16T07:32:57.759Z,25.84
2022-08-16T07:35:25.587Z,26.16
2022-08-16T07:37:54.347Z,26.51
2022-08-16T07:40:58.397Z,26.92
2022-08-16T07:43:16.026Z,27.39
2022-08-16T07:45:44.781Z,27.69
2022-08-16T07:48:19.534Z,28.01
2022-08-16T07:50:56.451Z,28.50
2022-08-16T07:53:29.023Z,28.78
2022-08-16T07:55:57.776Z,28.95
2022-08-16T07:58:33.828Z,29.20
2022-08-16T08:01:10.741Z,29.45
2022-08-16T08:03:53.658Z,29.68
2022-08-16T08:06:28.568Z,29.80
2022-08-16T08:08:59.501Z,29.97
2022-08-16T08:11:28.671Z,30.25
2022-08-16T08:14:03.547Z,30.42
2022-08-16T08:16:35.639Z,30.60
2022-08-16T08:19:04.178Z,30.82
2022-08-16T08:22:01.268Z,31.01
2022-08-16T08:24:36.108Z,31.24
2022-08-16T08:27:05.449Z,31.46
2022-08-16T08:29:37.574Z,31.75
2022-08-16T08:32:57.377Z,31.90
2022-08-16T08:35:00.364Z,32.03
2022-08-16T08:37:53.924Z,32.37
2022-08-16T08:40:24.542Z,32.75
2022-08-16T08:43:00.313Z,33.04
2022-08-16T08:45:48.542Z,33.23
2022-08-16T08:48:33.546Z,33.39
2022-08-16T08:51:04.438Z,33.54
2022-08-16T08:53:34.327Z,33.73
2022-08-16T08:56:22.550Z,33.77
2022-08-16T08:58:54.753Z,34.00
2022-08-16T09:01:36.718Z,36.29
2022-08-16T09:04:10.823Z,38.36
2022-08-16T09:06:44.346Z,38.76
2022-08-16T09:09:16.992Z,39.60
2022-08-16T09:11:53.363Z,40.88
2022-08-16T09:14:28.680Z,41.31
2022-08-16T09:17:03.893Z,43.55
2022-08-16T09:19:40.860Z,46.24
2022-08-16T09:22:20.924Z,47.69
2022-08-16T09:24:53.633Z,49.65
2022-08-16T09:27:26.542Z,48.73
2022-08-16T09:29:59.807Z,48.03
2022-08-16T09:32:30.692Z,47.06
2022-08-16T09:34:59.705Z,47.93
2022-08-16T09:37:36.463Z,48.04
2022-08-16T09:40:31.668Z,49.13
2022-08-16T09:42:58.753Z,50.46
2022-08-16T09:45:28.989Z,50.88
2022-08-16T09:47:58.442Z,51.17
2022-08-16T09:50:36.978Z,50.10
2022-08-16T09:53:15.589Z,48.99
2022-08-16T09:55:49.095Z,48.40
2022-08-16T09:58:41.727Z,49.82
2022-08-16T10:01:06.389Z,52.61
2022-08-16T10:03:36.690Z,54.44
2022-08-16T10:06:04.849Z,55.76
2022-08-16T10:08:33.702Z,56.55
2022-08-16T10:11:50.397Z,56.48
2022-08-16T10:14:19.912Z,54.47
2022-08-16T10:17:00.026Z,54.11
2022-08-16T10:19:32.063Z,55.77
2022-08-16T10:22:04.977Z,57.05
2022-08-16T10:24:33.764Z,58.10
2022-08-16T10:27:22.261Z,58.46
2022-08-16T10:29:59.479Z,57.56
2022-08-16T10:32:32.313Z,56.38
2022-08-16T10:35:00.300Z,55.00
2022-08-16T10:37:32.547Z,53.00
2022-08-16T10:40:05.301Z,51.66
2022-08-16T10:42:32.988Z,50.38
2022-08-16T10:45:02.822Z,49.95
2022-08-16T10:47:34.381Z,50.40
2022-08-16T10:50:06.939Z,49.58
2022-08-16T10:52:49.649Z,48.46
2022-08-16T10:58:11.708Z,45.86
2022-08-16T11:00:40.857Z,44.81
2022-08-16T11:03:43.060Z,44.47
2022-08-16T11:06:00.798Z,43.75
2022-08-16T11:08:35.183Z,42.74
2022-08-16T11:11:11.701Z,41.87
2022-08-16T11:19:17.545Z,40.43
2022-08-16T11:24:41.752Z,40.32
2022-08-16T11:27:24.114Z,40.38
2022-08-16T11:29:55.746Z,40.35
2022-08-16T11:32:31.181Z,40.04
2022-08-16T11:35:14.138Z,39.47
2022-08-16T11:40:36.373Z,38.29
2022-08-16T11:43:04.718Z,37.61
2022-08-16T11:45:34.926Z,37.06
2022-08-16T11:48:03.617Z,36.68
2022-08-16T11:50:33.587Z,36.27
2022-08-16T11:53:02.467Z,35.87
2022-08-16T11:55:31.759Z,35.42
2022-08-16T11:58:00.514Z,34.97
2022-08-16T12:00:34.205Z,34.59
2022-08-16T12:03:17.086Z,34.11
2022-08-16T12:05:45.313Z,33.73
2022-08-16T12:08:14.966Z,33.54
2022-08-16T12:10:46.696Z,33.07
2022-08-16T12:16:03.712Z,32.41
2022-08-16T12:18:30.123Z,32.14
2022-08-16T12:20:58.314Z,31.79
2022-08-16T12:23:26.266Z,31.45
2022-08-16T12:25:53.289Z,31.27
2022-08-16T12:28:25.322Z,31.06
2022-08-16T12:31:03.937Z,30.88
2022-08-16T12:33:31.837Z,30.81
2022-08-16T12:36:09.919Z,30.81
2022-08-16T12:38:46.667Z,30.87
2022-08-16T12:41:14.394Z,31.09
2022-08-16T12:43:51.373Z,31.31
2022-08-16T12:46:18.827Z,31.37
2022-08-16T12:48:57.065Z,31.54
2022-08-16T12:51:26.182Z,31.73
2022-08-16T12:53:59.983Z,31.99
2022-08-16T12:56:29.158Z,32.04
2022-08-16T12:58:56.268Z,32.28
2022-08-16T13:01:26.082Z,32.47
2022-08-16T13:04:08.188Z,32.68
2022-08-16T13:06:39.263Z,32.86
2022-08-16T13:09:19.407Z,32.92
2022-08-16T13:11:49.225Z,32.84
2022-08-16T13:14:31.206Z,32.63
2022-08-16T13:17:00.277Z,32.25
2022-08-16T13:19:35.142Z,32.03
2022-08-16T13:22:19.537Z,31.89
2022-08-16T13:24:46.190Z,31.80
2022-08-16T13:27:12.886Z,31.74
2022-08-16T13:29:44.011Z,31.73
2022-08-16T13:32:40.226Z,31.55
2022-08-16T13:34:57.775Z,31.43
2022-08-16T13:37:24.001Z,31.37
2022-08-16T13:39:52.406Z,31.23
2022-08-16T13:42:19.835Z,30.90
2022-08-16T13:44:56.595Z,30.69
2022-08-16T13:47:25.257Z,30.59
2022-08-16T13:49:56.576Z,30.56
2022-08-16T13:52:24.259Z,30.56
2022-08-16T13:54:51.351Z,30.38
2022-08-16T13:57:17.679Z,30.03
2022-08-16T13:59:44.262Z,29.79
2022-08-16T14:02:11.836Z,29.66
2022-08-16T14:04:38.593Z,29.63
2022-08-16T14:07:08.369Z,29.69
2022-08-16T14:09:35.836Z,29.90
2022-08-16T14:12:09.592Z,30.29
2022-08-16T14:14:43.650Z,30.85
2022-08-16T14:17:10.075Z,31.08
2022-08-16T14:19:37.345Z,31.15
2022-08-16T14:22:19.696Z,31.14
2022-08-16T14:24:57.897Z,31.16
2022-08-16T14:27:27.145Z,31.24
2022-08-16T14:29:54.220Z,31.56
2022-08-16T14:32:33.219Z,31.79
2022-08-16T14:35:10.985Z,31.68
2022-08-16T14:37:38.175Z,31.67
2022-08-16T14:40:05.423Z,31.61
2022-08-16T14:42:31.749Z,31.38
2022-08-16T14:45:00.230Z,31.18
2022-08-16T14:47:31.577Z,30.94
2022-08-16T14:50:01.368Z,30.63
2022-08-16T14:52:54.166Z,30.36
2022-08-16T14:55:14.618Z,30.07
2022-08-16T14:57:40.966Z,29.81
2022-08-16T15:00:08.942Z,29.64
2022-08-16T15:02:39.073Z,29.60
2022-08-16T15:05:07.368Z,29.55
2022-08-16T15:07:35.948Z,29.52
2022-08-16T15:10:03.822Z,29.61
2022-08-16T15:12:33.483Z,29.80
2022-08-16T15:15:01.223Z,30.03
2022-08-16T15:17:27.557Z,30.36
2022-08-16T15:20:01.058Z,30.54
2022-08-16T15:22:28.892Z,30.56
2022-08-16T15:24:58.675Z,30.53
2022-08-16T15:27:26.023Z,30.47
2022-08-16T15:30:02.497Z,30.46
2022-08-16T15:32:49.640Z,30.33
2022-08-16T15:35:17.311Z,30.13
2022-08-16T15:37:45.691Z,29.91
2022-08-16T15:40:26.529Z,29.68
2022-08-16T15:43:01.466Z,29.54
2022-08-16T15:45:46.069Z,29.41
2022-08-16T15:48:14.222Z,29.23
2022-08-16T15:50:43.828Z,29.06
2022-08-16T15:53:12.555Z,28.89
2022-08-16T15:55:38.973Z,28.71
2022-08-16T15:58:35.535Z,28.51
2022-08-16T16:00:51.661Z,28.30
2022-08-16T16:03:18.789Z,28.14
2022-08-16T16:05:46.254Z,28.01
2022-08-16T16:08:16.061Z,27.88
2022-08-16T16:10:54.449Z,27.75
2022-08-16T16:13:21.220Z,27.64
2022-08-16T16:15:51.726Z,27.54
2022-08-16T16:18:18.306Z,27.45
2022-08-16T16:21:04.756Z,27.38
2022-08-16T16:23:41.091Z,27.31
2022-08-16T16:26:11.719Z,27.23
2022-08-16T16:29:06.700Z,27.16
2022-08-16T16:31:26.587Z,27.09
2022-08-16T16:33:55.277Z,27.02
2022-08-16T16:36:28.179Z,26.93
2022-08-16T16:38:55.777Z,26.84
2022-08-16T16:41:23.950Z,26.77
2022-08-16T16:43:53.416Z,26.68
2022-08-16T16:46:43.076Z,26.56
2022-08-16T16:49:08.099Z,26.42
2022-08-16T16:51:40.671Z,26.31
2022-08-16T16:54:08.009Z,26.20
2022-08-16T16:56:37.579Z,26.08
2022-08-16T16:59:08.373Z,25.95
2022-08-16T17:01:57.439Z,25.81
2022-08-16T17:04:32.738Z,25.65
2022-08-16T17:07:00.251Z,25.50
2022-08-16T17:09:27.004Z,25.36
2022-08-16T17:11:55.512Z,25.21
2022-08-16T17:14:31.905Z,25.09
2022-08-16T17:16:59.008Z,24.99
2022-08-16T17:19:25.247Z,24.89
2022-08-16T17:21:58.760Z,24.80
2022-08-16T17:24:31.434Z,24.73
2022-08-16T17:27:07.056Z,24.68
2022-08-16T17:29:33.528Z,24.65
2022-08-16T17:32:02.333Z,24.60
2022-08-16T17:34:50.687Z,24.54
2022-08-16T17:37:17.420Z,24.51
2022-08-16T17:40:00.071Z,24.48
2022-08-16T17:42:39.086Z,24.44
2022-08-16T17:45:06.521Z,24.41
2022-08-16T17:47:32.777Z,24.38
2022-08-16T17:49:58.969Z,24.33
2022-08-16T17:52:27.796Z,24.28
2022-08-16T17:54:53.978Z,24.21
2022-08-16T17:57:20.289Z,24.14
2022-08-16T17:59:48.370Z,24.07
2022-08-16T18:02:43.313Z,23.99
2022-08-16T18:05:00.982Z,23.90
2022-08-16T18:07:28.230Z,23.84
2022-08-16T18:09:54.660Z,23.76
2022-08-16T18:12:51.296Z,23.67
2022-08-16T18:15:09.290Z,23.57
2022-08-16T18:17:35.599Z,23.48
2022-08-16T18:20:01.926Z,23.39
2022-08-16T18:22:30.833Z,23.31
2022-08-16T18:24:57.372Z,23.21
2022-08-16T18:27:26.883Z,23.11
2022-08-16T18:29:53.798Z,23.01
2022-08-16T18:32:21.897Z,22.94
2022-08-16T18:34:51.361Z,22.86
2022-08-16T18:37:18.417Z,22.78
2022-08-16T18:39:44.822Z,22.70
2022-08-16T18:42:11.942Z,22.65
2022-08-16T18:44:40.361Z,22.59
2022-08-16T18:47:06.748Z,22.52
2022-08-16T18:49:33.497Z,22.47
2022-08-16T18:52:00.089Z,22.40
2022-08-16T18:54:27.428Z,22.32
2022-08-16T18:56:57.569Z,22.24
2022-08-16T18:59:26.885Z,22.16
2022-08-16T19:01:53.306Z,22.06
2022-08-16T19:04:52.072Z,21.95
2022-08-16T19:07:13.448Z,21.88
2022-08-16T19:09:39.872Z,21.82
2022-08-16T19:12:06.374Z,21.74
2022-08-16T19:14:32.614Z,21.68
2022-08-16T19:16:58.786Z,21.61
2022-08-16T19:19:24.993Z,21.56
2022-08-16T19:21:51.294Z,21.53
2022-08-16T19:24:17.760Z,21.48
2022-08-16T19:26:45.373Z,21.43
2022-08-16T19:29:12.057Z,21.39
2022-08-16T19:31:39.954Z,21.35
2022-08-16T19:34:07.635Z,21.30
2022-08-16T19:36:36.100Z,21.28
2022-08-16T19:39:08.579Z,21.26
2022-08-16T19:41:40.784Z,21.24
2022-08-16T19:44:07.201Z,21.21
2022-08-16T19:46:33.719Z,21.18
2022-08-16T19:48:59.931Z,21.16
2022-08-16T19:51:26.404Z,21.15
2022-08-16T19:53:53.265Z,21.14
2022-08-16T19:56:22.433Z,21.13
2022-08-16T19:59:16.375Z,21.14
2022-08-16T20:01:41.197Z,21.16
2022-08-16T20:04:11.440Z,21.16
2022-08-16T20:06:38.907Z,21.15
2022-08-16T20:09:05.587Z,21.13
2022-08-16T20:11:31.792Z,21.11
2022-08-16T20:13:58.706Z,21.08
2022-08-16T20:16:25.103Z,21.07
2022-08-16T20:18:51.270Z,21.06
2022-08-16T20:21:17.990Z,21.04
2022-08-16T20:23:44.135Z,21.01
2022-08-16T20:26:10.301Z,21.02
2022-08-16T20:28:45.025Z,21.00
2022-08-16T20:31:22.184Z,20.99
2022-08-16T20:33:48.672Z,20.97
2022-08-16T20:36:16.238Z,20.93
2022-08-16T20:38:46.030Z,20.90
2022-08-16T20:41:12.273Z,20.87
2022-08-16T20:43:39.187Z,20.86
2022-08-16T20:46:05.406Z,20.84
2022-08-16T20:48:31.610Z,20.80
2022-08-16T20:50:57.786Z,20.77
2022-08-16T20:53:23.953Z,20.74
2022-08-16T20:55:50.296Z,20.71
2022-08-16T20:58:16.680Z,20.66
2022-08-16T21:00:44.597Z,20.62
2022-08-16T21:03:11.568Z,20.60
2022-08-16T21:05:37.859Z,20.58
2022-08-16T21:08:09.699Z,20.55
2022-08-16T21:10:50.386Z,20.54
2022-08-16T21:13:17.244Z,20.53
2022-08-16T21:15:43.961Z,20.51
2022-08-16T21:18:10.385Z,20.47
2022-08-16T21:20:37.227Z,20.43
2022-08-16T21:23:04.729Z,20.37
2022-08-16T21:25:31.404Z,20.31
2022-08-16T21:28:41.020Z,20.26
2022-08-16T21:30:44.025Z,20.23
2022-08-16T21:33:12.083Z,20.19
2022-08-16T21:35:39.379Z,20.15
2022-08-16T21:38:28.979Z,20.11
2022-08-16T21:40:52.068Z,20.08
2022-08-16T21:43:19.464Z,20.06
2022-08-16T21:45:46.417Z,20.03
2022-08-16T21:48:13.143Z,20.01
2022-08-16T21:50:40.331Z,20.01
2022-08-16T21:53:09.899Z,20.01
2022-08-16T21:55:36.547Z,19.99
2022-08-16T21:58:02.935Z,19.94
2022-08-16T22:00:30.004Z,19.87
2022-08-16T22:02:57.285Z,19.85
2022-08-16T22:05:24.068Z,19.85
2022-08-16T22:07:50.607Z,19.82
2022-08-16T22:11:04.505Z,19.78
2022-08-16T22:13:03.987Z,19.76
2022-08-16T22:15:30.181Z,19.74
2022-08-16T22:17:58.317Z,19.74
2022-08-16T22:20:25.257Z,19.71
2022-08-16T22:22:51.783Z,19.69
2022-08-16T22:25:19.126Z,19.67
2022-08-16T22:27:46.513Z,19.67
2022-08-16T22:30:12.970Z,19.63
2022-08-16T22:32:41.704Z,19.61
2022-08-16T22:35:10.805Z,19.58
2022-08-16T22:37:41.230Z,19.58
2022-08-16T22:40:27.364Z,19.58
2022-08-16T22:42:54.538Z,19.58
2022-08-16T22:45:22.540Z,19.54
2022-08-16T22:47:49.284Z,19.48
2022-08-16T22:50:15.557Z,19.43
2022-08-16T22:52:56.456Z,19.39
2022-08-16T22:55:26.008Z,19.37
2022-08-16T22:57:52.915Z,19.33
2022-08-16T23:00:20.360Z,19.31
2022-08-16T23:02:53.478Z,19.30
2022-08-16T23:05:21.752Z,19.28
2022-08-16T23:07:48.392Z,19.27
2022-08-16T23:10:14.796Z,19.26
2022-08-16T23:12:48.397Z,19.26
2022-08-16T23:15:16.395Z,19.25
2022-08-16T23:17:42.907Z,19.25
2022-08-16T23:20:10.444Z,19.25
2022-08-16T23:23:19.014Z,19.24
2022-08-16T23:25:33.346Z,19.21
2022-08-16T23:27:59.695Z,19.17
2022-08-16T23:30:26.659Z,19.13
2022-08-16T23:32:54.027Z,19.09
2022-08-16T23:35:21.861Z,19.05
2022-08-16T23:37:49.609Z,19.05
2022-08-16T23:40:16.113Z,19.03
2022-08-16T23:43:03.858Z,19.00
2022-08-16T23:45:34.423Z,18.99
2022-08-16T23:48:00.699Z,19.00
2022-08-16T23:50:27.273Z,19.02
2022-08-16T23:52:55.821Z,19.04
2022-08-16T23:55:22.363Z,19.01
2022-08-16T23:57:49.220Z,19.00
